createdAt,value
2017-10-05T00:00:07.315Z,0
2017-10-05T00:01:16.148Z,0
2017-10-05T00:02:25.307Z,0
2017-10-05T00:03:34.139Z,0
2017-10-05T00:04:42.976Z,0
2017-10-05T00:05:51.804Z,0
2017-10-05T00:07:00.646Z,0
2017-10-05T00:08:09.477Z,0
2017-10-05T00:09:18.315Z,0
2017-10-05T00:10:27.472Z,0
2017-10-05T00:11:36.306Z,0
2017-10-05T00:12:45.140Z,0
2017-10-05T00:13:53.980Z,0
2017-10-05T00:15:02.813Z,0
2017-10-05T00:16:11.644Z,0
2017-10-05T00:17:20.482Z,0
2017-10-05T00:18:29.314Z,0
2017-10-05T00:19:38.149Z,0
2017-10-05T00:20:46.987Z,0
2017-10-05T00:21:55.820Z,0
2017-10-05T00:23:04.656Z,0
2017-10-05T00:24:13.493Z,0
2017-10-05T00:25:22.655Z,0
2017-10-05T00:26:31.488Z,0
2017-10-05T00:27:40.323Z,0
2017-10-05T00:28:49.159Z,0
2017-10-05T00:29:57.992Z,0
2017-10-05T00:31:06.828Z,0
2017-10-05T00:32:15.669Z,0
2017-10-05T00:33:24.495Z,0
2017-10-05T00:34:33.329Z,0
2017-10-05T00:35:42.487Z,0
2017-10-05T00:36:51.322Z,0
2017-10-05T00:38:00.153Z,0
2017-10-05T00:39:08.991Z,0
2017-10-05T00:40:17.825Z,0
2017-10-05T00:41:26.656Z,0
2017-10-05T00:42:35.492Z,0
2017-10-05T00:43:44.326Z,0
2017-10-05T00:44:53.163Z,0
2017-10-05T00:46:01.995Z,0
2017-10-05T00:47:10.833Z,0
2017-10-05T00:48:19.664Z,0
2017-10-05T00:49:28.821Z,0
2017-10-05T00:50:37.658Z,0
2017-10-05T00:51:46.496Z,0
2017-10-05T00:52:55.333Z,0
2017-10-05T00:54:04.161Z,0
2017-10-05T00:55:12.995Z,0
2017-10-05T00:56:21.829Z,0
2017-10-05T00:57:30.668Z,0
2017-10-05T00:58:39.846Z,0
2017-10-05T00:59:48.682Z,0
2017-10-05T01:00:57.516Z,0
2017-10-05T01:02:06.350Z,0
2017-10-05T01:03:15.180Z,0
2017-10-05T01:04:24.016Z,0
2017-10-05T01:05:32.844Z,0
2017-10-05T01:06:41.686Z,0
2017-10-05T01:07:50.522Z,0
2017-10-05T01:08:59.348Z,0
2017-10-05T01:10:08.180Z,0
2017-10-05T01:11:17.012Z,0
2017-10-05T01:12:25.849Z,0
2017-10-05T01:13:34.684Z,0
2017-10-05T01:14:43.518Z,0
2017-10-05T01:15:52.351Z,0
2017-10-05T01:17:01.507Z,0
2017-10-05T01:18:10.344Z,0
2017-10-05T01:19:19.171Z,0
2017-10-05T01:20:28.007Z,0
2017-10-05T01:21:36.833Z,0
2017-10-05T01:22:45.667Z,0
2017-10-05T01:23:54.503Z,0
2017-10-05T01:25:03.342Z,0
2017-10-05T01:26:12.175Z,0
2017-10-05T01:27:21.006Z,0
2017-10-05T01:28:29.839Z,0
2017-10-05T01:29:38.672Z,0
2017-10-05T01:30:47.506Z,0
2017-10-05T01:31:56.344Z,0
2017-10-05T01:33:05.176Z,0
2017-10-05T01:34:14.016Z,0
2017-10-05T01:35:22.848Z,0
2017-10-05T01:36:31.683Z,0
2017-10-05T01:37:40.517Z,0
2017-10-05T01:38:49.351Z,0
2017-10-05T01:39:58.182Z,0
2017-10-05T01:41:07.015Z,0
2017-10-05T01:42:15.853Z,0
2017-10-05T01:43:24.687Z,0
2017-10-05T01:44:33.521Z,0
2017-10-05T01:45:42.358Z,0
2017-10-05T01:46:51.192Z,0
2017-10-05T01:48:00.031Z,0
2017-10-05T01:49:08.861Z,0
2017-10-05T01:50:17.699Z,0
2017-10-05T01:51:26.531Z,0
2017-10-05T01:52:35.368Z,0
2017-10-05T01:53:44.200Z,0
2017-10-05T01:54:53.036Z,0
2017-10-05T01:56:01.872Z,0
2017-10-05T01:57:10.704Z,0
2017-10-05T01:58:19.539Z,0
2017-10-05T01:59:28.375Z,0
2017-10-05T02:00:37.205Z,0
2017-10-05T02:01:46.042Z,0
2017-10-05T02:02:55.200Z,0
2017-10-05T02:04:04.035Z,0
2017-10-05T02:05:12.866Z,0
2017-10-05T02:06:21.702Z,0
2017-10-05T02:07:30.533Z,0
2017-10-05T02:08:39.375Z,0
2017-10-05T02:09:48.522Z,0
2017-10-05T02:10:57.361Z,0
2017-10-05T02:12:06.196Z,0
2017-10-05T02:13:15.356Z,0
2017-10-05T02:14:24.191Z,0
2017-10-05T02:15:33.025Z,0
2017-10-05T02:16:41.858Z,0
2017-10-05T02:17:50.690Z,0
2017-10-05T02:18:59.530Z,0
2017-10-05T02:20:08.362Z,0
2017-10-05T02:21:17.194Z,0
2017-10-05T02:22:26.032Z,0
2017-10-05T02:23:34.865Z,0
2017-10-05T02:24:43.700Z,0
2017-10-05T02:25:52.852Z,0
2017-10-05T02:27:01.688Z,0
2017-10-05T02:28:10.519Z,0
2017-10-05T02:29:19.358Z,0
2017-10-05T02:30:28.198Z,0
2017-10-05T02:31:37.027Z,0
2017-10-05T02:32:45.866Z,0
2017-10-05T02:33:54.693Z,0
2017-10-05T02:35:03.533Z,0
2017-10-05T02:36:12.364Z,0
2017-10-05T02:37:21.203Z,0
2017-10-05T02:38:30.363Z,0
2017-10-05T02:39:39.198Z,0
2017-10-05T02:40:48.029Z,0
2017-10-05T02:41:56.868Z,0
2017-10-05T02:43:06.032Z,0
2017-10-05T02:44:14.862Z,0
2017-10-05T02:45:23.697Z,0
2017-10-05T02:46:32.532Z,0
2017-10-05T02:47:41.366Z,0
2017-10-05T02:48:50.528Z,0
2017-10-05T02:49:59.692Z,0
2017-10-05T02:51:08.527Z,0
2017-10-05T02:52:17.360Z,0
2017-10-05T02:53:26.200Z,0
2017-10-05T02:54:35.361Z,0
2017-10-05T02:55:44.199Z,0
2017-10-05T02:56:53.029Z,0
2017-10-05T02:58:01.864Z,0
2017-10-05T02:59:10.696Z,0
2017-10-05T03:00:19.534Z,0
2017-10-05T03:01:28.373Z,0
2017-10-05T03:02:37.209Z,0
2017-10-05T03:03:46.039Z,0
2017-10-05T03:04:54.869Z,0
2017-10-05T03:06:03.698Z,0
2017-10-05T03:07:12.535Z,0
2017-10-05T03:08:21.371Z,0
2017-10-05T03:09:30.206Z,0
2017-10-05T03:10:39.045Z,0
2017-10-05T03:11:47.876Z,0
2017-10-05T03:12:56.708Z,0
2017-10-05T03:14:05.545Z,0
2017-10-05T03:15:14.380Z,0
2017-10-05T03:16:23.207Z,0
2017-10-05T03:17:32.050Z,0
2017-10-05T03:18:40.881Z,0
2017-10-05T03:19:49.712Z,0
2017-10-05T03:20:58.544Z,0
2017-10-05T03:22:07.706Z,0
2017-10-05T03:23:16.531Z,0
2017-10-05T03:24:25.369Z,0
2017-10-05T03:25:34.201Z,0
2017-10-05T03:26:43.039Z,0
2017-10-05T03:27:51.876Z,0
2017-10-05T03:29:00.711Z,0
2017-10-05T03:30:09.547Z,0
2017-10-05T03:31:18.375Z,0
2017-10-05T03:32:27.212Z,0
2017-10-05T03:33:36.044Z,0
2017-10-05T03:34:44.874Z,0
2017-10-05T03:35:53.709Z,0
2017-10-05T03:37:02.545Z,0
2017-10-05T03:38:11.380Z,0
2017-10-05T03:39:20.532Z,0
2017-10-05T03:40:29.362Z,0
2017-10-05T03:41:38.520Z,0
2017-10-05T03:42:47.356Z,0
2017-10-05T03:43:56.185Z,0
2017-10-05T03:45:05.014Z,0
2017-10-05T03:46:14.172Z,0
2017-10-05T03:47:23.005Z,0
2017-10-05T03:48:31.840Z,0
2017-10-05T03:49:40.675Z,0
2017-10-05T03:50:49.506Z,0
2017-10-05T03:51:58.336Z,0
2017-10-05T03:53:07.167Z,0
2017-10-05T03:54:16.323Z,0
2017-10-05T03:55:25.159Z,0
2017-10-05T03:56:34.044Z,0
2017-10-05T03:57:42.876Z,0
2017-10-05T03:58:51.711Z,0
2017-10-05T04:00:00.541Z,0
2017-10-05T04:01:09.377Z,0
2017-10-05T04:02:18.208Z,0
2017-10-05T04:03:27.043Z,0
2017-10-05T04:04:35.875Z,0
2017-10-05T04:05:44.706Z,0
2017-10-05T04:06:53.535Z,0
2017-10-05T04:08:02.366Z,0
2017-10-05T04:09:11.202Z,0
2017-10-05T04:10:20.364Z,0
2017-10-05T04:11:29.198Z,0
2017-10-05T04:12:38.026Z,0
2017-10-05T04:13:46.866Z,0
2017-10-05T04:14:55.703Z,0
2017-10-05T04:16:04.532Z,0
2017-10-05T04:17:13.366Z,0
2017-10-05T04:18:22.192Z,0
2017-10-05T04:19:31.024Z,0
2017-10-05T04:20:39.860Z,0
2017-10-05T04:21:48.700Z,0
2017-10-05T04:22:57.535Z,0
2017-10-05T04:24:06.363Z,0
2017-10-05T04:25:15.517Z,0
2017-10-05T04:26:24.349Z,0
2017-10-05T04:27:33.186Z,0
2017-10-05T04:28:42.019Z,0
2017-10-05T04:29:50.852Z,0
2017-10-05T04:30:59.686Z,0
2017-10-05T04:32:08.520Z,0
2017-10-05T04:33:17.355Z,0
2017-10-05T04:34:26.186Z,0
2017-10-05T04:35:35.019Z,0
2017-10-05T04:36:43.848Z,0
2017-10-05T04:37:52.682Z,0
2017-10-05T04:39:01.518Z,0
2017-10-05T04:40:10.348Z,0
2017-10-05T04:41:19.183Z,0
2017-10-05T04:42:28.015Z,0
2017-10-05T04:43:36.853Z,0
2017-10-05T04:44:45.682Z,0
2017-10-05T04:45:54.522Z,0
2017-10-05T04:47:03.347Z,0
2017-10-05T04:48:12.182Z,0
2017-10-05T04:49:21.016Z,0
2017-10-05T04:50:30.181Z,0
2017-10-05T04:51:39.015Z,0
2017-10-05T04:52:47.844Z,0
2017-10-05T04:53:56.674Z,0
2017-10-05T04:55:05.509Z,0
2017-10-05T04:56:14.694Z,0
2017-10-05T04:57:23.841Z,0
2017-10-05T04:58:32.676Z,0
2017-10-05T04:59:41.510Z,0
2017-10-05T05:00:50.343Z,0
2017-10-05T05:01:59.175Z,0
2017-10-05T05:03:08.006Z,0
2017-10-05T05:04:16.840Z,0
2017-10-05T05:05:25.668Z,0
2017-10-05T05:06:34.504Z,4
2017-10-05T05:07:43.334Z,4
2017-10-05T05:08:52.172Z,0
2017-10-05T05:10:01.004Z,4
2017-10-05T05:11:09.836Z,4
2017-10-05T05:12:18.667Z,4
2017-10-05T05:13:27.498Z,4
2017-10-05T05:14:36.329Z,4
2017-10-05T05:15:45.163Z,4
2017-10-05T05:16:54.002Z,4
2017-10-05T05:18:02.832Z,4
2017-10-05T05:19:11.661Z,4
2017-10-05T05:20:20.817Z,8
2017-10-05T05:21:29.654Z,4
2017-10-05T05:22:38.480Z,8
2017-10-05T05:23:47.315Z,12
2017-10-05T05:24:56.467Z,8
2017-10-05T05:26:05.295Z,8
2017-10-05T05:27:14.132Z,8
2017-10-05T05:28:22.968Z,8
2017-10-05T05:29:31.801Z,12
2017-10-05T05:30:40.635Z,8
2017-10-05T05:31:49.461Z,12
2017-10-05T05:32:58.295Z,8
2017-10-05T05:34:07.130Z,12
2017-10-05T05:35:16.286Z,12
2017-10-05T05:36:25.118Z,16
2017-10-05T05:37:33.952Z,16
2017-10-05T05:38:42.781Z,16
2017-10-05T05:39:51.610Z,16
2017-10-05T05:41:00.451Z,16
2017-10-05T05:42:09.603Z,20
2017-10-05T05:43:18.432Z,24
2017-10-05T05:44:27.263Z,24
2017-10-05T05:45:36.097Z,28
2017-10-05T05:46:44.930Z,28
2017-10-05T05:47:53.761Z,44
2017-10-05T05:49:02.595Z,44
2017-10-05T05:50:11.425Z,36
2017-10-05T05:51:20.259Z,44
2017-10-05T05:52:29.083Z,44
2017-10-05T05:53:37.920Z,36
2017-10-05T05:54:46.748Z,40
2017-10-05T05:55:55.580Z,36
2017-10-05T05:57:04.413Z,60
2017-10-05T05:58:13.246Z,52
2017-10-05T05:59:22.079Z,64
2017-10-05T06:00:30.917Z,72
2017-10-05T06:01:40.065Z,76
2017-10-05T06:02:48.895Z,88
2017-10-05T06:03:57.728Z,100
2017-10-05T06:05:06.561Z,96
2017-10-05T06:06:15.390Z,88
2017-10-05T06:07:24.225Z,100
2017-10-05T06:08:33.052Z,92
2017-10-05T06:09:41.882Z,76
2017-10-05T06:10:50.717Z,48
2017-10-05T06:11:59.548Z,52
2017-10-05T06:13:08.381Z,88
2017-10-05T06:14:17.208Z,104
2017-10-05T06:15:26.044Z,100
2017-10-05T06:16:34.877Z,88
2017-10-05T06:17:43.710Z,88
2017-10-05T06:18:52.543Z,72
2017-10-05T06:20:01.369Z,60
2017-10-05T06:21:10.205Z,56
2017-10-05T06:22:19.361Z,56
2017-10-05T06:23:28.199Z,68
2017-10-05T06:24:37.353Z,100
2017-10-05T06:25:46.187Z,104
2017-10-05T06:26:55.016Z,104
2017-10-05T06:28:03.851Z,116
2017-10-05T06:29:12.684Z,96
2017-10-05T06:30:21.514Z,84
2017-10-05T06:31:30.679Z,80
2017-10-05T06:32:39.511Z,80
2017-10-05T06:33:48.343Z,76
2017-10-05T06:34:57.170Z,72
2017-10-05T06:36:06.013Z,76
2017-10-05T06:37:14.838Z,128
2017-10-05T06:38:23.670Z,128
2017-10-05T06:39:32.504Z,92
2017-10-05T06:40:41.335Z,72
2017-10-05T06:41:50.163Z,84
2017-10-05T06:42:58.992Z,148
2017-10-05T06:44:07.823Z,144
2017-10-05T06:45:16.659Z,128
2017-10-05T06:46:25.490Z,120
2017-10-05T06:47:34.317Z,100
2017-10-05T06:48:43.144Z,104
2017-10-05T06:49:51.978Z,112
2017-10-05T06:51:00.820Z,144
2017-10-05T06:52:09.645Z,108
2017-10-05T06:53:18.479Z,136
2017-10-05T06:54:27.308Z,140
2017-10-05T06:55:36.134Z,144
2017-10-05T06:56:44.967Z,136
2017-10-05T06:57:53.798Z,184
2017-10-05T06:59:02.633Z,132
2017-10-05T07:00:11.465Z,136
2017-10-05T07:01:20.297Z,208
2017-10-05T07:02:29.129Z,164
2017-10-05T07:03:37.979Z,148
2017-10-05T07:04:47.144Z,132
2017-10-05T07:05:55.976Z,132
2017-10-05T07:07:04.811Z,204
2017-10-05T07:08:13.640Z,296
2017-10-05T07:09:22.796Z,300
2017-10-05T07:10:31.637Z,268
2017-10-05T07:11:40.471Z,196
2017-10-05T07:12:49.301Z,168
2017-10-05T07:13:58.136Z,144
2017-10-05T07:15:06.963Z,168
2017-10-05T07:16:15.791Z,204
2017-10-05T07:17:24.623Z,248
2017-10-05T07:18:33.782Z,268
2017-10-05T07:19:42.608Z,256
2017-10-05T07:20:51.444Z,236
2017-10-05T07:22:00.269Z,220
2017-10-05T07:23:09.102Z,208
2017-10-05T07:24:17.935Z,232
2017-10-05T07:25:26.771Z,244
2017-10-05T07:26:35.601Z,256
2017-10-05T07:27:44.434Z,228
2017-10-05T07:28:53.269Z,272
2017-10-05T07:30:02.419Z,204
2017-10-05T07:31:11.256Z,204
2017-10-05T07:32:20.085Z,144
2017-10-05T07:33:28.916Z,128
2017-10-05T07:34:38.072Z,200
2017-10-05T07:35:46.921Z,200
2017-10-05T07:36:55.737Z,260
2017-10-05T07:38:04.570Z,188
2017-10-05T07:39:13.404Z,180
2017-10-05T07:40:22.239Z,244
2017-10-05T07:41:31.069Z,268
2017-10-05T07:42:39.896Z,284
2017-10-05T07:43:48.727Z,240
2017-10-05T07:44:57.558Z,260
2017-10-05T07:46:06.398Z,240
2017-10-05T07:47:15.234Z,276
2017-10-05T07:48:24.064Z,308
2017-10-05T07:49:32.899Z,192
2017-10-05T07:50:41.723Z,196
2017-10-05T07:51:50.557Z,244
2017-10-05T07:52:59.387Z,340
2017-10-05T07:54:08.218Z,464
2017-10-05T07:55:17.056Z,440
2017-10-05T07:56:25.886Z,500
2017-10-05T07:57:34.719Z,408
2017-10-05T07:58:43.548Z,292
2017-10-05T07:59:52.379Z,340
2017-10-05T08:01:01.541Z,332
2017-10-05T08:02:10.372Z,428
2017-10-05T08:03:19.205Z,576
2017-10-05T08:04:28.040Z,496
2017-10-05T08:05:36.866Z,420
2017-10-05T08:06:45.697Z,444
2017-10-05T08:07:54.532Z,408
2017-10-05T08:09:03.364Z,472
2017-10-05T08:10:12.190Z,428
2017-10-05T08:11:21.028Z,460
2017-10-05T08:12:29.857Z,356
2017-10-05T08:13:38.692Z,300
2017-10-05T08:14:47.520Z,248
2017-10-05T08:15:56.352Z,188
2017-10-05T08:17:05.179Z,220
2017-10-05T08:18:14.015Z,260
2017-10-05T08:19:22.842Z,224
2017-10-05T08:20:31.677Z,196
2017-10-05T08:21:40.506Z,200
2017-10-05T08:22:49.336Z,204
2017-10-05T08:23:58.168Z,260
2017-10-05T08:25:06.993Z,400
2017-10-05T08:26:15.832Z,320
2017-10-05T08:27:24.657Z,396
2017-10-05T08:28:33.498Z,328
2017-10-05T08:29:42.329Z,400
2017-10-05T08:30:51.161Z,312
2017-10-05T08:31:59.989Z,320
2017-10-05T08:33:08.825Z,344
2017-10-05T08:34:17.652Z,276
2017-10-05T08:35:26.482Z,348
2017-10-05T08:36:35.320Z,336
2017-10-05T08:37:44.150Z,428
2017-10-05T08:38:52.974Z,440
2017-10-05T08:40:01.808Z,432
2017-10-05T08:41:10.641Z,464
2017-10-05T08:42:19.479Z,548
2017-10-05T08:43:28.312Z,508
2017-10-05T08:44:37.138Z,364
2017-10-05T08:45:45.968Z,316
2017-10-05T08:46:54.801Z,276
2017-10-05T08:48:03.625Z,264
2017-10-05T08:49:12.460Z,304
2017-10-05T08:50:21.614Z,244
2017-10-05T08:51:30.447Z,244
2017-10-05T08:52:39.298Z,276
2017-10-05T08:53:48.107Z,408
2017-10-05T08:54:56.938Z,388
2017-10-05T08:56:05.770Z,460
2017-10-05T08:57:14.605Z,560
2017-10-05T08:58:23.435Z,532
2017-10-05T08:59:32.268Z,600
2017-10-05T09:00:41.099Z,600
2017-10-05T09:01:49.929Z,612
2017-10-05T09:02:58.760Z,544
2017-10-05T09:04:07.915Z,452
2017-10-05T09:05:16.743Z,384
2017-10-05T09:06:25.575Z,316
2017-10-05T09:07:34.407Z,220
2017-10-05T09:08:43.244Z,312
2017-10-05T09:09:52.069Z,412
2017-10-05T09:11:00.905Z,464
2017-10-05T09:12:09.731Z,436
2017-10-05T09:13:18.562Z,412
2017-10-05T09:14:27.717Z,400
2017-10-05T09:15:36.553Z,372
2017-10-05T09:16:45.384Z,284
2017-10-05T09:17:54.222Z,264
2017-10-05T09:19:03.054Z,264
2017-10-05T09:20:11.884Z,268
2017-10-05T09:21:20.720Z,384
2017-10-05T09:22:29.551Z,376
2017-10-05T09:23:38.380Z,244
2017-10-05T09:24:47.208Z,352
2017-10-05T09:25:56.042Z,340
2017-10-05T09:27:04.872Z,360
2017-10-05T09:28:13.703Z,476
2017-10-05T09:29:22.534Z,608
2017-10-05T09:30:31.363Z,656
2017-10-05T09:31:40.520Z,908
2017-10-05T09:32:49.347Z,616
2017-10-05T09:33:58.179Z,624
2017-10-05T09:35:07.013Z,476
2017-10-05T09:36:15.847Z,500
2017-10-05T09:37:24.683Z,416
2017-10-05T09:38:33.517Z,420
2017-10-05T09:39:42.350Z,356
2017-10-05T09:40:51.178Z,472
2017-10-05T09:42:00.014Z,740
2017-10-05T09:43:08.845Z,524
2017-10-05T09:44:17.675Z,556
2017-10-05T09:45:26.508Z,608
2017-10-05T09:46:35.343Z,508
2017-10-05T09:47:44.177Z,336
2017-10-05T09:48:53.008Z,524
2017-10-05T09:50:01.844Z,384
2017-10-05T09:51:10.674Z,336
2017-10-05T09:52:19.504Z,252
2017-10-05T09:53:28.336Z,276
2017-10-05T09:54:37.169Z,396
2017-10-05T09:55:45.998Z,332
2017-10-05T09:56:54.832Z,384
2017-10-05T09:58:03.666Z,484
2017-10-05T09:59:12.494Z,440
2017-10-05T10:00:21.332Z,348
2017-10-05T10:01:30.162Z,416
2017-10-05T10:02:38.994Z,336
2017-10-05T10:03:47.823Z,340
2017-10-05T10:04:56.655Z,344
2017-10-05T10:06:05.488Z,340
2017-10-05T10:07:14.318Z,272
2017-10-05T10:08:23.475Z,372
2017-10-05T10:09:32.631Z,344
2017-10-05T10:10:41.470Z,244
2017-10-05T10:11:50.295Z,300
2017-10-05T10:12:59.125Z,316
2017-10-05T10:14:07.957Z,256
2017-10-05T10:15:16.790Z,260
2017-10-05T10:16:25.616Z,356
2017-10-05T10:17:34.784Z,448
2017-10-05T10:18:43.621Z,380
2017-10-05T10:19:52.446Z,216
2017-10-05T10:21:01.604Z,256
2017-10-05T10:22:10.438Z,256
2017-10-05T10:23:19.264Z,244
2017-10-05T10:24:28.100Z,288
2017-10-05T10:25:36.928Z,352
2017-10-05T10:26:45.767Z,304
2017-10-05T10:27:54.600Z,308
2017-10-05T10:29:03.431Z,368
2017-10-05T10:30:12.259Z,288
2017-10-05T10:31:21.094Z,300
2017-10-05T10:32:29.919Z,368
2017-10-05T10:33:39.072Z,408
2017-10-05T10:34:47.909Z,340
2017-10-05T10:35:56.737Z,276
2017-10-05T10:37:05.896Z,420
2017-10-05T10:38:14.731Z,348
2017-10-05T10:39:23.559Z,508
2017-10-05T10:40:32.395Z,540
2017-10-05T10:41:41.223Z,484
2017-10-05T10:42:50.056Z,352
2017-10-05T10:43:58.887Z,476
2017-10-05T10:45:07.719Z,344
2017-10-05T10:46:16.548Z,440
2017-10-05T10:47:25.381Z,496
2017-10-05T10:48:34.216Z,460
2017-10-05T10:49:43.049Z,380
2017-10-05T10:50:51.877Z,536
2017-10-05T10:52:00.707Z,480
2017-10-05T10:53:09.538Z,564
2017-10-05T10:54:18.704Z,720
2017-10-05T10:55:27.535Z,700
2017-10-05T10:56:36.701Z,736
2017-10-05T10:57:45.529Z,772
2017-10-05T10:58:54.357Z,524
2017-10-05T11:00:03.189Z,696
2017-10-05T11:01:12.020Z,484
2017-10-05T11:02:20.854Z,532
2017-10-05T11:03:29.690Z,388
2017-10-05T11:04:38.520Z,400
2017-10-05T11:05:47.354Z,420
2017-10-05T11:06:56.183Z,472
2017-10-05T11:08:05.017Z,448
2017-10-05T11:09:13.845Z,612
2017-10-05T11:10:22.682Z,528
2017-10-05T11:11:31.509Z,516
2017-10-05T11:12:40.661Z,440
2017-10-05T11:13:49.495Z,640
2017-10-05T11:14:58.323Z,604
2017-10-05T11:16:07.157Z,460
2017-10-05T11:17:15.995Z,520
2017-10-05T11:18:24.823Z,548
2017-10-05T11:19:33.656Z,548
2017-10-05T11:20:42.483Z,540
2017-10-05T11:21:51.315Z,436
2017-10-05T11:23:00.142Z,436
2017-10-05T11:24:08.980Z,484
2017-10-05T11:25:17.810Z,464
2017-10-05T11:26:26.643Z,456
2017-10-05T11:27:35.472Z,668
2017-10-05T11:28:44.306Z,664
2017-10-05T11:29:53.138Z,732
2017-10-05T11:31:01.970Z,972
2017-10-05T11:32:10.801Z,936
2017-10-05T11:33:19.628Z,936
2017-10-05T11:34:28.464Z,656
2017-10-05T11:35:37.298Z,476
2017-10-05T11:36:46.127Z,596
2017-10-05T11:37:54.961Z,628
2017-10-05T11:39:03.785Z,604
2017-10-05T11:40:12.616Z,648
2017-10-05T11:41:21.455Z,416
2017-10-05T11:42:30.609Z,500
2017-10-05T11:43:39.439Z,536
2017-10-05T11:44:48.267Z,624
2017-10-05T11:45:57.097Z,676
2017-10-05T11:47:06.274Z,660
2017-10-05T11:48:15.108Z,640
2017-10-05T11:49:23.937Z,616
2017-10-05T11:50:32.768Z,640
2017-10-05T11:51:41.598Z,740
2017-10-05T11:52:50.431Z,804
2017-10-05T11:53:59.264Z,696
2017-10-05T11:55:08.095Z,916
2017-10-05T11:56:16.927Z,956
2017-10-05T11:57:25.763Z,1416
2017-10-05T11:58:34.603Z,2404
2017-10-05T11:59:43.439Z,1908
2017-10-05T12:00:52.266Z,2580
2017-10-05T12:02:01.098Z,1528
2017-10-05T12:03:09.930Z,784
2017-10-05T12:04:18.762Z,724
2017-10-05T12:05:27.595Z,1564
2017-10-05T12:06:36.425Z,980
2017-10-05T12:07:45.265Z,1176
2017-10-05T12:08:54.099Z,1500
2017-10-05T12:10:02.933Z,1044
2017-10-05T12:11:11.762Z,1900
2017-10-05T12:12:20.596Z,1496
2017-10-05T12:13:29.425Z,1248
2017-10-05T12:14:38.261Z,1208
2017-10-05T12:15:47.095Z,1240
2017-10-05T12:16:55.922Z,1876
2017-10-05T12:18:04.754Z,1516
2017-10-05T12:19:13.589Z,1420
2017-10-05T12:20:22.421Z,1312
2017-10-05T12:21:31.253Z,1816
2017-10-05T12:22:40.080Z,1080
2017-10-05T12:23:48.908Z,1200
2017-10-05T12:24:57.741Z,1636
2017-10-05T12:26:06.577Z,996
2017-10-05T12:27:15.411Z,504
2017-10-05T12:28:24.240Z,676
2017-10-05T12:29:33.072Z,588
2017-10-05T12:30:41.898Z,840
2017-10-05T12:31:50.737Z,512
2017-10-05T12:32:59.571Z,864
2017-10-05T12:34:08.403Z,964
2017-10-05T12:35:17.236Z,1324
2017-10-05T12:36:26.066Z,1088
2017-10-05T12:37:34.898Z,824
2017-10-05T12:38:43.735Z,1124
2017-10-05T12:39:52.574Z,772
2017-10-05T12:41:01.400Z,736
2017-10-05T12:42:10.230Z,780
2017-10-05T12:43:19.061Z,1244
2017-10-05T12:44:27.896Z,1124
2017-10-05T12:45:36.732Z,972
2017-10-05T12:46:45.568Z,780
2017-10-05T12:47:54.399Z,648
2017-10-05T12:49:03.545Z,420
2017-10-05T12:50:12.380Z,500
2017-10-05T12:51:21.210Z,420
2017-10-05T12:52:30.042Z,424
2017-10-05T12:53:38.879Z,440
2017-10-05T12:54:47.709Z,736
2017-10-05T12:55:56.534Z,1332
2017-10-05T12:57:05.370Z,736
2017-10-05T12:58:14.201Z,664
2017-10-05T12:59:23.041Z,800
2017-10-05T13:00:31.873Z,924
2017-10-05T13:01:41.022Z,512
2017-10-05T13:02:49.852Z,416
2017-10-05T13:03:59.011Z,440
2017-10-05T13:05:07.840Z,368
2017-10-05T13:06:16.673Z,492
2017-10-05T13:07:25.508Z,252
2017-10-05T13:08:34.338Z,224
2017-10-05T13:09:43.171Z,208
2017-10-05T13:10:52.012Z,220
2017-10-05T13:12:00.838Z,180
2017-10-05T13:13:09.989Z,196
2017-10-05T13:14:18.818Z,236
2017-10-05T13:15:27.651Z,336
2017-10-05T13:16:36.485Z,228
2017-10-05T13:17:45.318Z,408
2017-10-05T13:18:54.168Z,336
2017-10-05T13:20:02.980Z,380
2017-10-05T13:21:11.817Z,396
2017-10-05T13:22:20.649Z,284
2017-10-05T13:23:29.479Z,376
2017-10-05T13:24:38.311Z,396
2017-10-05T13:25:47.139Z,632
2017-10-05T13:26:55.975Z,564
2017-10-05T13:28:04.808Z,504
2017-10-05T13:29:13.643Z,520
2017-10-05T13:30:22.474Z,424
2017-10-05T13:31:31.307Z,444
2017-10-05T13:32:40.139Z,380
2017-10-05T13:33:48.974Z,464
2017-10-05T13:34:57.809Z,420
2017-10-05T13:36:06.636Z,320
2017-10-05T13:37:15.467Z,644
2017-10-05T13:38:24.298Z,612
2017-10-05T13:39:33.134Z,528
2017-10-05T13:40:41.967Z,400
2017-10-05T13:41:51.120Z,364
2017-10-05T13:42:59.958Z,276
2017-10-05T13:44:08.788Z,312
2017-10-05T13:45:17.628Z,360
2017-10-05T13:46:26.455Z,364
2017-10-05T13:47:35.285Z,736
2017-10-05T13:48:44.120Z,876
2017-10-05T13:49:52.953Z,372
2017-10-05T13:51:01.791Z,300
2017-10-05T13:52:10.617Z,192
2017-10-05T13:53:19.449Z,256
2017-10-05T13:54:28.281Z,232
2017-10-05T13:55:37.117Z,168
2017-10-05T13:56:45.946Z,200
2017-10-05T13:57:54.780Z,248
2017-10-05T13:59:03.612Z,372
2017-10-05T14:00:12.440Z,788
2017-10-05T14:01:21.276Z,552
2017-10-05T14:02:30.111Z,1064
2017-10-05T14:03:38.942Z,756
2017-10-05T14:04:47.774Z,524
2017-10-05T14:05:56.601Z,716
2017-10-05T14:07:05.431Z,684
2017-10-05T14:08:14.266Z,524
2017-10-05T14:09:23.098Z,320
2017-10-05T14:10:31.928Z,220
2017-10-05T14:11:40.760Z,276
2017-10-05T14:12:49.590Z,228
2017-10-05T14:13:58.745Z,168
2017-10-05T14:15:07.584Z,156
2017-10-05T14:16:16.737Z,164
2017-10-05T14:17:25.568Z,244
2017-10-05T14:18:34.402Z,232
2017-10-05T14:19:43.233Z,172
2017-10-05T14:20:52.068Z,204
2017-10-05T14:22:00.900Z,264
2017-10-05T14:23:09.735Z,216
2017-10-05T14:24:18.563Z,244
2017-10-05T14:25:27.398Z,484
2017-10-05T14:26:36.231Z,264
2017-10-05T14:27:45.058Z,132
2017-10-05T14:28:53.892Z,88
2017-10-05T14:30:02.722Z,108
2017-10-05T14:31:11.556Z,176
2017-10-05T14:32:20.391Z,152
2017-10-05T14:33:29.227Z,188
2017-10-05T14:34:38.056Z,180
2017-10-05T14:35:46.885Z,248
2017-10-05T14:36:55.723Z,324
2017-10-05T14:38:04.550Z,456
2017-10-05T14:39:13.382Z,292
2017-10-05T14:40:22.213Z,208
2017-10-05T14:41:31.045Z,220
2017-10-05T14:42:39.881Z,228
2017-10-05T14:43:48.716Z,224
2017-10-05T14:44:57.866Z,200
2017-10-05T14:46:06.704Z,228
2017-10-05T14:47:15.535Z,268
2017-10-05T14:48:24.371Z,332
2017-10-05T14:49:33.204Z,240
2017-10-05T14:50:42.039Z,228
2017-10-05T14:51:50.866Z,244
2017-10-05T14:52:59.693Z,292
2017-10-05T14:54:08.529Z,348
2017-10-05T14:55:17.359Z,244
2017-10-05T14:56:26.192Z,416
2017-10-05T14:57:35.353Z,308
2017-10-05T14:58:44.187Z,248
2017-10-05T14:59:53.015Z,196
2017-10-05T15:01:01.844Z,196
2017-10-05T15:02:10.678Z,140
2017-10-05T15:03:19.511Z,348
2017-10-05T15:04:28.351Z,272
2017-10-05T15:05:37.180Z,344
2017-10-05T15:06:46.329Z,708
2017-10-05T15:07:55.162Z,456
2017-10-05T15:09:03.995Z,340
2017-10-05T15:10:13.151Z,400
2017-10-05T15:11:21.988Z,384
2017-10-05T15:12:31.157Z,392
2017-10-05T15:13:39.985Z,372
2017-10-05T15:14:48.819Z,256
2017-10-05T15:15:57.652Z,244
2017-10-05T15:17:06.483Z,412
2017-10-05T15:18:15.316Z,268
2017-10-05T15:19:24.142Z,296
2017-10-05T15:20:32.975Z,436
2017-10-05T15:21:41.807Z,528
2017-10-05T15:22:51.288Z,460
2017-10-05T15:24:00.117Z,664
2017-10-05T15:25:08.945Z,476
2017-10-05T15:26:17.772Z,464
2017-10-05T15:27:26.598Z,320
2017-10-05T15:28:35.436Z,248
2017-10-05T15:29:44.589Z,260
2017-10-05T15:30:53.411Z,360
2017-10-05T15:32:02.245Z,448
2017-10-05T15:33:11.073Z,288
2017-10-05T15:34:19.905Z,384
2017-10-05T15:35:28.731Z,384
2017-10-05T15:36:37.889Z,376
2017-10-05T15:37:46.720Z,376
2017-10-05T15:38:55.877Z,360
2017-10-05T15:40:04.705Z,204
2017-10-05T15:41:13.866Z,156
2017-10-05T15:42:22.700Z,116
2017-10-05T15:43:31.534Z,116
2017-10-05T15:44:40.717Z,156
2017-10-05T15:45:49.551Z,156
2017-10-05T15:46:58.382Z,228
2017-10-05T15:48:07.211Z,220
2017-10-05T15:49:16.041Z,232
2017-10-05T15:50:24.877Z,160
2017-10-05T15:51:33.705Z,160
2017-10-05T15:52:42.539Z,104
2017-10-05T15:53:51.702Z,96
2017-10-05T15:55:00.537Z,100
2017-10-05T15:56:09.369Z,136
2017-10-05T15:57:18.196Z,92
2017-10-05T15:58:27.350Z,100
2017-10-05T15:59:36.232Z,108
2017-10-05T16:00:45.061Z,120
2017-10-05T16:01:53.891Z,108
2017-10-05T16:03:02.718Z,96
2017-10-05T16:04:11.549Z,88
2017-10-05T16:05:20.380Z,80
2017-10-05T16:06:29.214Z,76
2017-10-05T16:07:38.045Z,52
2017-10-05T16:08:46.877Z,52
2017-10-05T16:09:55.708Z,44
2017-10-05T16:11:04.856Z,48
2017-10-05T16:12:13.688Z,36